createdAt,value
2023-04-18T00:01:18.709Z,14.53
2023-04-18T00:03:48.406Z,14.83
2023-04-18T00:06:16.782Z,12.77
2023-04-18T00:08:44.844Z,15.27
2023-04-18T00:11:12.975Z,14.27
2023-04-18T00:13:41.592Z,17.27
2023-04-18T00:16:10.016Z,19.70
2023-04-18T00:18:39.945Z,18.07
2023-04-18T00:21:09.702Z,18.27
2023-04-18T00:23:38.619Z,17.00
2023-04-18T00:26:06.821Z,20.63
2023-04-18T00:28:34.887Z,18.73
2023-04-18T00:31:03.042Z,18.30
2023-04-18T00:33:33.381Z,17.13
2023-04-18T00:36:01.439Z,18.37
2023-04-18T00:38:30.985Z,20.50
2023-04-18T00:40:59.084Z,24.93
2023-04-18T00:43:27.144Z,21.37
2023-04-18T00:45:57.076Z,23.47
2023-04-18T00:48:26.064Z,22.40
2023-04-18T00:50:55.356Z,18.47
2023-04-18T00:53:23.521Z,20.23
2023-04-18T00:55:53.018Z,20.57
2023-04-18T00:58:21.460Z,19.60
2023-04-18T01:00:49.912Z,18.70
2023-04-18T01:03:18.423Z,24.63
2023-04-18T01:05:47.646Z,16.13
2023-04-18T01:08:15.802Z,20.90
2023-04-18T01:10:43.936Z,21.57
2023-04-18T01:13:14.413Z,19.40
2023-04-18T01:15:43.482Z,23.70
2023-04-18T01:18:11.881Z,18.97
2023-04-18T01:20:42.515Z,23.63
2023-04-18T01:23:11.422Z,26.27
2023-04-18T01:25:41.046Z,25.70
2023-04-18T01:28:09.600Z,26.20
2023-04-18T01:30:37.676Z,22.63
2023-04-18T01:33:06.039Z,34.87
2023-04-18T01:35:34.196Z,25.13
2023-04-18T01:38:02.364Z,28.97
2023-04-18T01:40:31.397Z,22.27
2023-04-18T01:43:02.579Z,36.63
2023-04-18T01:45:30.658Z,26.33
2023-04-18T01:47:58.754Z,20.77
2023-04-18T01:50:26.933Z,17.90
2023-04-18T01:52:55.397Z,26.20
2023-04-18T01:55:23.477Z,19.23
2023-04-18T01:57:51.886Z,21.70
2023-04-18T02:00:23.368Z,16.83
2023-04-18T02:02:52.000Z,17.57
2023-04-18T02:05:22.334Z,15.30
2023-04-18T02:07:50.842Z,18.00
2023-04-18T02:10:19.022Z,14.53
2023-04-18T02:12:47.159Z,16.00
2023-04-18T02:15:15.749Z,16.10
2023-04-18T02:17:45.688Z,15.50
2023-04-18T02:20:14.734Z,23.07
2023-04-18T02:22:42.979Z,13.93
2023-04-18T02:25:11.704Z,17.27
2023-04-18T02:27:40.402Z,13.90
2023-04-18T02:30:09.499Z,12.83
2023-04-18T02:32:37.741Z,15.13
2023-04-18T02:35:09.840Z,15.37
2023-04-18T02:37:38.016Z,18.93
2023-04-18T02:40:07.354Z,13.90
2023-04-18T02:42:35.497Z,15.77
2023-04-18T02:45:03.814Z,15.83
2023-04-18T02:47:40.529Z,13.20
2023-04-18T02:50:20.096Z,14.37
2023-04-18T02:52:48.397Z,15.33
2023-04-18T02:55:18.893Z,13.20
2023-04-18T02:57:47.647Z,13.70
2023-04-18T03:00:33.917Z,13.00
2023-04-18T03:03:20.731Z,14.77
2023-04-18T03:06:01.457Z,17.20
2023-04-18T03:08:31.340Z,13.30
2023-04-18T03:10:59.727Z,14.57
2023-04-18T03:13:30.635Z,24.00
2023-04-18T03:15:59.535Z,15.43
2023-04-18T03:18:29.061Z,24.30
2023-04-18T03:21:01.371Z,12.83
2023-04-18T03:23:31.339Z,99.20
2023-04-18T03:26:00.974Z,104.50
2023-04-18T03:28:32.681Z,15.03
2023-04-18T03:31:01.589Z,73.87
2023-04-18T03:33:30.317Z,65.20
2023-04-18T03:36:09.735Z,10.37
2023-04-18T03:38:40.667Z,19.47
2023-04-18T03:41:09.813Z,33.73
2023-04-18T03:43:40.166Z,14.13
2023-04-18T03:46:08.323Z,17.73
2023-04-18T03:48:37.701Z,12.73
2023-04-18T03:51:11.785Z,14.70
2023-04-18T03:53:40.553Z,11.43
2023-04-18T03:56:09.145Z,17.53
2023-04-18T03:58:58.749Z,13.00
2023-04-18T04:01:26.913Z,12.27
2023-04-18T04:03:55.649Z,12.50
2023-04-18T04:06:27.420Z,11.77
2023-04-18T04:08:59.120Z,11.67
2023-04-18T04:11:29.581Z,12.20
2023-04-18T04:13:58.136Z,12.17
2023-04-18T04:16:32.321Z,17.77
2023-04-18T04:19:01.405Z,11.00
2023-04-18T04:21:38.359Z,10.87
2023-04-18T04:24:09.564Z,10.37
2023-04-18T04:26:42.789Z,10.57
2023-04-18T04:29:16.916Z,12.60
2023-04-18T04:31:47.701Z,11.90
2023-04-18T04:34:22.758Z,13.43
2023-04-18T04:36:53.994Z,12.50
2023-04-18T04:39:24.705Z,11.67
2023-04-18T04:42:05.481Z,13.33
2023-04-18T04:44:44.522Z,13.70
2023-04-18T04:47:12.778Z,15.93
2023-04-18T04:49:41.195Z,18.77
2023-04-18T04:52:11.272Z,16.70
2023-04-18T04:54:39.516Z,15.83
2023-04-18T04:57:10.071Z,19.03
2023-04-18T04:59:38.224Z,27.73
2023-04-18T05:02:32.492Z,17.50
2023-04-18T05:05:01.041Z,42.20
2023-04-18T05:07:30.537Z,35.63
2023-04-18T05:09:58.706Z,32.57
2023-04-18T05:12:26.916Z,33.80
2023-04-18T05:14:55.041Z,52.60
2023-04-18T05:17:23.182Z,65.73
2023-04-18T05:19:51.921Z,36.10
2023-04-18T05:22:20.063Z,74.97
2023-04-18T05:24:49.631Z,47.80
2023-04-18T05:27:18.206Z,76.03
2023-04-18T05:29:47.644Z,88.50
2023-04-18T05:32:16.346Z,140.13
2023-04-18T05:34:44.470Z,65.07
2023-04-18T05:37:12.578Z,42.73
2023-04-18T05:39:40.803Z,39.47
2023-04-18T05:42:10.442Z,46.03
2023-04-18T05:44:38.676Z,33.10
2023-04-18T05:47:07.207Z,34.73
2023-04-18T05:49:35.386Z,33.30
2023-04-18T05:52:03.530Z,41.53
2023-04-18T05:54:31.598Z,17.03
2023-04-18T05:56:59.763Z,17.07
2023-04-18T05:59:29.904Z,22.20
2023-04-18T06:01:58.319Z,73.37
2023-04-18T06:04:26.599Z,59.30
2023-04-18T06:06:54.791Z,55.40
2023-04-18T06:09:22.849Z,63.07
2023-04-18T06:11:51.402Z,62.43
2023-04-18T06:14:19.559Z,56.93
2023-04-18T06:16:49.168Z,252.40
2023-04-18T06:19:17.328Z,254.67
2023-04-18T06:21:45.519Z,94.87
2023-04-18T06:24:13.875Z,82.73
2023-04-18T06:26:42.499Z,58.53
2023-04-18T06:29:10.638Z,66.70
2023-04-18T06:31:38.761Z,84.20
2023-04-18T06:34:08.881Z,65.00
2023-04-18T06:36:37.004Z,90.77
2023-04-18T06:39:05.159Z,92.93
2023-04-18T06:41:33.748Z,83.87
2023-04-18T06:44:03.348Z,76.83
2023-04-18T06:46:32.222Z,75.77
2023-04-18T06:49:00.467Z,73.97
2023-04-18T06:51:30.102Z,75.13
2023-04-18T06:53:58.627Z,71.70
2023-04-18T06:56:26.946Z,152.13
2023-04-18T06:58:55.038Z,102.33
2023-04-18T07:01:23.223Z,167.03
2023-04-18T07:03:51.439Z,108.23
2023-04-18T07:06:19.636Z,157.17
2023-04-18T07:08:49.491Z,127.70
2023-04-18T07:11:18.582Z,186.77
2023-04-18T07:13:47.438Z,142.13
2023-04-18T07:16:15.762Z,241.80
2023-04-18T07:18:44.005Z,89.73
2023-04-18T07:21:12.525Z,346.40
2023-04-18T07:23:40.852Z,402.20
2023-04-18T07:26:11.486Z,78.53
2023-04-18T07:28:39.584Z,250.70
2023-04-18T07:31:11.294Z,182.80
2023-04-18T07:33:39.603Z,280.80
2023-04-18T07:36:08.794Z,387.83
2023-04-18T07:38:36.898Z,166.73
2023-04-18T07:41:05.126Z,344.00
2023-04-18T07:43:34.648Z,325.40
2023-04-18T07:46:02.825Z,281.67
2023-04-18T07:48:31.337Z,401.50
2023-04-18T07:50:59.528Z,210.07
2023-04-18T07:53:27.717Z,335.83
2023-04-18T07:55:56.262Z,298.73
2023-04-18T07:58:24.479Z,575.97
2023-04-18T08:00:54.505Z,201.13
2023-04-18T08:03:22.809Z,340.50
2023-04-18T08:05:51.997Z,200.87
2023-04-18T08:08:20.113Z,201.43
2023-04-18T08:10:48.246Z,82.50
2023-04-18T08:13:18.008Z,106.43
2023-04-18T08:15:47.333Z,166.87
2023-04-18T08:18:16.896Z,497.87
2023-04-18T08:20:45.069Z,553.23
2023-04-18T08:23:13.978Z,73.80
2023-04-18T08:25:42.138Z,346.93
2023-04-18T08:28:10.933Z,210.90
2023-04-18T08:30:39.081Z,456.13
2023-04-18T08:33:07.317Z,313.03
2023-04-18T08:35:36.988Z,302.43
2023-04-18T08:38:05.107Z,316.67
2023-04-18T08:40:33.371Z,343.17
2023-04-18T08:43:02.203Z,483.40
2023-04-18T08:45:31.354Z,273.67
2023-04-18T08:48:01.641Z,486.87
2023-04-18T08:50:30.140Z,279.53
2023-04-18T08:53:00.915Z,248.10
2023-04-18T08:55:29.617Z,360.73
2023-04-18T08:57:57.967Z,312.67
2023-04-18T09:00:27.221Z,326.50
2023-04-18T09:02:57.157Z,175.47
2023-04-18T09:05:26.996Z,150.20
2023-04-18T09:07:56.201Z,220.23
2023-04-18T09:10:33.330Z,333.90
2023-04-18T09:13:03.292Z,104.10
2023-04-18T09:15:32.490Z,102.90
2023-04-18T09:18:02.906Z,72.87
2023-04-18T09:20:36.021Z,89.53
2023-04-18T09:23:04.937Z,79.33
2023-04-18T09:25:36.120Z,77.50
2023-04-18T09:28:04.692Z,90.90
2023-04-18T09:30:37.826Z,132.47
2023-04-18T09:33:07.649Z,90.33
2023-04-18T09:35:36.033Z,52.07
2023-04-18T09:38:04.551Z,61.10
2023-04-18T09:40:34.339Z,87.30
2023-04-18T09:43:02.504Z,53.90
2023-04-18T09:45:30.666Z,41.87
2023-04-18T09:47:58.831Z,42.83
2023-04-18T09:50:27.434Z,42.23
2023-04-18T09:52:55.641Z,38.70
2023-04-18T09:55:23.825Z,43.20
2023-04-18T09:57:53.360Z,43.60
2023-04-18T10:00:24.182Z,40.53
2023-04-18T10:02:55.374Z,40.83
2023-04-18T10:05:26.540Z,43.30
2023-04-18T10:07:54.976Z,41.27
2023-04-18T10:10:23.281Z,41.67
2023-04-18T10:12:53.928Z,42.13
2023-04-18T10:15:22.901Z,41.93
2023-04-18T10:20:28.301Z,59.93
2023-04-18T10:22:56.804Z,73.97
2023-04-18T10:25:50.600Z,70.33
2023-04-18T10:28:21.471Z,92.70
2023-04-18T10:30:52.248Z,51.67
2023-04-18T10:33:33.489Z,108.47
2023-04-18T10:36:14.903Z,166.67
2023-04-18T10:38:47.756Z,142.07
2023-04-18T10:41:17.338Z,344.53
2023-04-18T10:44:19.836Z,160.33
2023-04-18T10:47:33.968Z,207.70
2023-04-18T10:50:06.302Z,228.53
2023-04-18T10:52:37.664Z,159.10
2023-04-18T10:55:14.766Z,184.20
2023-04-18T10:57:43.500Z,194.80
2023-04-18T11:00:15.237Z,128.50
2023-04-18T11:02:50.226Z,123.53
2023-04-18T11:05:22.936Z,70.33
2023-04-18T11:07:51.221Z,40.47
2023-04-18T11:10:20.363Z,99.00
2023-04-18T11:12:48.953Z,122.53
2023-04-18T11:15:21.615Z,271.80
2023-04-18T11:17:57.117Z,150.57
2023-04-18T11:20:25.677Z,80.43
2023-04-18T11:22:54.690Z,70.80
2023-04-18T11:25:26.106Z,143.47
2023-04-18T11:27:55.229Z,215.77
2023-04-18T11:30:24.782Z,244.47
2023-04-18T11:32:54.244Z,189.57
2023-04-18T11:35:22.462Z,259.77
2023-04-18T11:37:51.316Z,247.33
2023-04-18T11:40:19.834Z,43.60
2023-04-18T11:42:47.945Z,353.47
2023-04-18T11:45:16.313Z,211.33
2023-04-18T11:47:48.114Z,201.13
2023-04-18T11:50:16.419Z,75.73
2023-04-18T11:52:44.697Z,165.00
2023-04-18T11:55:14.609Z,44.00
2023-04-18T11:57:43.023Z,123.87
2023-04-18T12:00:12.947Z,124.73
2023-04-18T12:02:42.141Z,174.10
2023-04-18T12:05:12.452Z,130.83
2023-04-18T12:07:41.974Z,134.20
2023-04-18T12:10:10.939Z,135.53
2023-04-18T12:12:39.117Z,148.13
2023-04-18T12:15:09.424Z,136.63
2023-04-18T12:17:38.078Z,54.90
2023-04-18T12:20:08.042Z,212.87
2023-04-18T12:22:42.035Z,209.67
2023-04-18T12:25:20.325Z,101.70
2023-04-18T12:27:52.279Z,89.00
2023-04-18T12:30:22.057Z,106.53
2023-04-18T12:32:51.097Z,62.47
2023-04-18T12:35:20.095Z,84.07
2023-04-18T12:37:49.670Z,94.30
2023-04-18T12:40:19.012Z,40.23
2023-04-18T12:42:47.456Z,70.63
2023-04-18T12:45:16.171Z,72.60
2023-04-18T12:47:45.320Z,93.63
2023-04-18T12:50:19.083Z,116.30
2023-04-18T12:52:47.255Z,88.97
2023-04-18T12:55:16.825Z,67.10
2023-04-18T12:57:44.964Z,101.47
2023-04-18T13:00:14.216Z,111.97
2023-04-18T13:02:43.621Z,68.10
2023-04-18T13:05:13.231Z,52.67
2023-04-18T13:07:42.534Z,105.13
2023-04-18T13:10:11.700Z,80.53
2023-04-18T13:12:41.515Z,91.33
2023-04-18T13:15:10.577Z,81.73
2023-04-18T13:17:38.845Z,62.70
2023-04-18T13:20:09.098Z,87.70
2023-04-18T13:22:37.332Z,76.27
2023-04-18T13:25:05.820Z,79.57
2023-04-18T13:27:33.937Z,64.37
2023-04-18T13:30:03.892Z,96.47
2023-04-18T13:32:32.467Z,87.13
2023-04-18T13:35:00.661Z,96.20
2023-04-18T13:37:28.781Z,60.77
2023-04-18T13:39:57.416Z,69.40
2023-04-18T13:42:25.925Z,82.87
2023-04-18T13:44:54.464Z,65.20
2023-04-18T13:47:24.003Z,69.97
2023-04-18T13:49:52.251Z,80.10
2023-04-18T13:52:20.384Z,69.30
2023-04-18T13:54:49.331Z,78.40
2023-04-18T13:57:17.475Z,98.93
2023-04-18T13:59:45.609Z,96.90
2023-04-18T14:02:14.013Z,77.80
2023-04-18T14:04:43.906Z,100.07
2023-04-18T14:07:12.177Z,80.23
2023-04-18T14:09:40.683Z,76.80
2023-04-18T14:12:08.935Z,93.33
2023-04-18T14:14:37.116Z,86.93
2023-04-18T14:17:05.229Z,77.77
2023-04-18T14:19:34.806Z,71.60
2023-04-18T14:22:04.306Z,88.63
2023-04-18T14:24:32.393Z,56.07
2023-04-18T14:27:01.773Z,58.20
2023-04-18T14:29:29.900Z,65.17
2023-04-18T14:31:58.120Z,72.43
2023-04-18T14:34:26.288Z,59.10
2023-04-18T14:36:54.766Z,55.50
2023-04-18T14:39:24.769Z,58.43
2023-04-18T14:41:54.833Z,53.70
2023-04-18T14:44:22.938Z,58.50
2023-04-18T14:46:51.096Z,54.73
2023-04-18T14:49:19.719Z,51.47
2023-04-18T14:51:47.885Z,52.07
2023-04-18T14:54:16.009Z,45.87
2023-04-18T14:56:45.499Z,48.83
2023-04-18T14:59:16.476Z,51.87
2023-04-18T15:01:45.094Z,51.77
2023-04-18T15:04:13.546Z,49.50
2023-04-18T15:06:42.226Z,45.50
2023-04-18T15:09:10.333Z,48.70
2023-04-18T15:11:38.715Z,47.53
2023-04-18T15:14:08.217Z,45.00
2023-04-18T15:16:38.122Z,44.77
2023-04-18T15:19:06.649Z,49.03
2023-04-18T15:21:34.795Z,49.60
2023-04-18T15:24:03.278Z,49.30
2023-04-18T15:26:33.141Z,54.80
2023-04-18T15:29:02.606Z,45.13
2023-04-18T15:31:32.603Z,49.20
2023-04-18T15:34:00.854Z,54.17
2023-04-18T15:36:28.999Z,55.20
2023-04-18T15:38:57.112Z,50.03
2023-04-18T15:41:25.314Z,49.10
2023-04-18T15:43:54.000Z,57.63
2023-04-18T15:46:22.393Z,56.20
2023-04-18T15:48:52.198Z,60.20
2023-04-18T15:51:20.364Z,60.97
2023-04-18T15:53:48.482Z,61.03
2023-04-18T15:56:16.609Z,54.47
2023-04-18T15:58:45.189Z,54.07
2023-04-18T16:01:15.916Z,59.27
2023-04-18T16:03:44.508Z,60.80
2023-04-18T16:06:15.252Z,66.77
2023-04-18T16:08:43.377Z,65.73
2023-04-18T16:11:11.476Z,63.63
2023-04-18T16:13:39.618Z,60.97
2023-04-18T16:16:08.346Z,59.97
2023-04-18T16:18:36.505Z,55.10
2023-04-18T16:21:04.790Z,61.20
2023-04-18T16:23:34.304Z,52.77
2023-04-18T16:26:02.956Z,53.13
2023-04-18T16:28:31.044Z,55.70
2023-04-18T16:30:59.264Z,50.03
2023-04-18T16:33:27.557Z,53.87
2023-04-18T16:35:57.784Z,54.20
2023-04-18T16:38:27.371Z,55.80
2023-04-18T16:40:57.642Z,49.47
2023-04-18T16:43:26.984Z,57.50
2023-04-18T16:45:56.509Z,52.40
2023-04-18T16:48:24.759Z,53.73
2023-04-18T16:50:52.973Z,50.20
2023-04-18T16:53:22.282Z,56.07
2023-04-18T16:55:50.585Z,48.43
2023-04-18T16:58:20.289Z,48.67
2023-04-18T17:00:48.416Z,52.93
2023-04-18T17:03:16.629Z,47.67
2023-04-18T17:05:44.916Z,42.97
2023-04-18T17:08:13.000Z,49.63
2023-04-18T17:10:41.139Z,46.60
2023-04-18T17:13:09.370Z,41.20
2023-04-18T17:15:39.310Z,40.80
2023-04-18T17:18:07.473Z,39.57
2023-04-18T17:20:36.167Z,39.67
2023-04-18T17:23:04.289Z,40.33
2023-04-18T17:25:32.359Z,35.73
2023-04-18T17:28:02.241Z,36.67
2023-04-18T17:30:30.492Z,35.93
2023-04-18T17:33:00.422Z,34.47
2023-04-18T17:35:28.667Z,31.67
2023-04-18T17:37:56.881Z,31.90
2023-04-18T17:40:25.171Z,33.17
2023-04-18T17:42:53.291Z,33.50
2023-04-18T17:45:21.552Z,26.93
2023-04-18T17:47:50.950Z,31.27
2023-04-18T17:50:20.702Z,26.23
2023-04-18T17:52:48.959Z,27.80
2023-04-18T17:55:17.166Z,29.13
2023-04-18T17:57:45.339Z,26.40
2023-04-18T18:00:14.698Z,30.43
2023-04-18T18:02:43.403Z,30.13
2023-04-18T18:05:13.672Z,27.30
2023-04-18T18:07:47.467Z,30.53
2023-04-18T18:10:19.051Z,30.87
2023-04-18T18:12:47.204Z,33.77
2023-04-18T18:15:15.699Z,32.07
2023-04-18T18:17:43.863Z,30.67
2023-04-18T18:20:12.037Z,34.97
2023-04-18T18:22:40.153Z,32.83
2023-04-18T18:25:10.641Z,36.13
2023-04-18T18:27:38.814Z,35.30
2023-04-18T18:30:08.431Z,38.07
2023-04-18T18:32:36.576Z,32.67
2023-04-18T18:35:06.082Z,39.93
2023-04-18T18:37:34.231Z,43.73
2023-04-18T18:40:04.540Z,37.33
2023-04-18T18:42:34.441Z,44.07
2023-04-18T18:45:02.549Z,43.67
2023-04-18T18:47:31.465Z,36.27
2023-04-18T18:49:59.605Z,44.77
2023-04-18T18:52:29.803Z,48.03
2023-04-18T18:54:58.426Z,43.20
2023-04-18T18:57:26.653Z,52.90
2023-04-18T18:59:56.153Z,51.20
2023-04-18T19:02:24.577Z,44.43
2023-04-18T19:04:52.932Z,46.60
2023-04-18T19:07:21.112Z,62.67
2023-04-18T19:09:49.631Z,59.43
2023-04-18T19:12:17.896Z,65.07
2023-04-18T19:14:46.900Z,53.20
2023-04-18T19:17:17.695Z,60.53
2023-04-18T19:19:46.286Z,59.57
2023-04-18T19:22:14.415Z,72.33
2023-04-18T19:24:42.508Z,58.43
2023-04-18T19:27:10.579Z,66.33
2023-04-18T19:29:38.703Z,50.83
2023-04-18T19:32:07.523Z,66.83
2023-04-18T19:34:37.125Z,60.83
2023-04-18T19:37:05.544Z,49.37
2023-04-18T19:39:33.663Z,72.03
2023-04-18T19:42:03.934Z,54.23
2023-04-18T19:44:32.478Z,45.83
2023-04-18T19:47:00.594Z,75.80
2023-04-18T19:49:28.773Z,70.57
2023-04-18T19:51:59.673Z,44.37
2023-04-18T19:54:27.808Z,105.10
2023-04-18T19:56:56.562Z,80.60
2023-04-18T19:59:24.677Z,68.93
2023-04-18T20:01:52.848Z,61.63
2023-04-18T20:04:22.252Z,74.87
2023-04-18T20:06:50.539Z,51.07
2023-04-18T20:09:20.038Z,56.43
2023-04-18T20:11:48.619Z,46.53
2023-04-18T20:14:16.734Z,41.60
2023-04-18T20:16:46.212Z,44.47
2023-04-18T20:19:14.913Z,36.03
2023-04-18T20:21:43.305Z,43.27
2023-04-18T20:24:11.342Z,39.13
2023-04-18T20:26:40.853Z,43.13
2023-04-18T20:29:09.117Z,38.83
2023-04-18T20:31:42.178Z,36.87
2023-04-18T20:34:11.037Z,33.27
2023-04-18T20:36:41.655Z,33.83
2023-04-18T20:39:09.885Z,34.20
2023-04-18T20:41:38.034Z,36.03
2023-04-18T20:44:10.068Z,31.83
2023-04-18T20:46:38.257Z,33.90
2023-04-18T20:49:06.550Z,36.07
2023-04-18T20:51:35.794Z,34.03
2023-04-18T20:54:03.873Z,38.90
2023-04-18T20:56:32.108Z,33.00
2023-04-18T20:59:00.657Z,35.97
2023-04-18T21:01:30.265Z,36.60
2023-04-18T21:03:58.661Z,39.07
2023-04-18T21:06:28.429Z,42.33
2023-04-18T21:08:56.678Z,43.67
2023-04-18T21:11:24.806Z,48.87
2023-04-18T21:13:53.276Z,48.30
2023-04-18T21:16:21.443Z,49.27
2023-04-18T21:18:50.982Z,71.83
2023-04-18T21:21:19.156Z,62.77
2023-04-18T21:23:47.273Z,70.20
2023-04-18T21:26:15.861Z,51.93
2023-04-18T21:28:54.255Z,47.27
2023-04-18T21:31:22.376Z,34.63
2023-04-18T21:33:54.779Z,39.53
2023-04-18T21:36:22.986Z,42.27
2023-04-18T21:38:53.058Z,38.23
2023-04-18T21:41:21.729Z,36.40
2023-04-18T21:43:49.861Z,35.17
2023-04-18T21:46:18.274Z,31.77
2023-04-18T21:48:47.912Z,29.77
2023-04-18T21:51:17.930Z,31.93
2023-04-18T21:53:46.533Z,37.57
2023-04-18T21:56:15.041Z,31.03
2023-04-18T21:58:43.132Z,32.33
2023-04-18T22:01:11.372Z,30.50
2023-04-18T22:03:39.829Z,35.83
2023-04-18T22:06:08.155Z,34.60
2023-04-18T22:08:38.099Z,38.70
2023-04-18T22:11:06.499Z,44.53
2023-04-18T22:13:34.669Z,26.93
2023-04-18T22:16:03.743Z,41.50
2023-04-18T22:18:33.697Z,44.23
2023-04-18T22:21:02.429Z,47.50
2023-04-18T22:23:30.744Z,99.07
2023-04-18T22:26:00.322Z,80.87
2023-04-18T22:28:28.969Z,70.47
2023-04-18T22:30:57.200Z,68.87
2023-04-18T22:33:25.448Z,122.23
2023-04-18T22:35:54.247Z,103.37
2023-04-18T22:38:22.412Z,93.47
2023-04-18T22:40:50.515Z,249.47
2023-04-18T22:43:22.812Z,190.20
2023-04-18T22:45:51.286Z,187.00
2023-04-18T22:48:19.501Z,303.87
2023-04-18T22:50:49.768Z,225.83
2023-04-18T22:53:18.117Z,177.80
2023-04-18T22:55:46.365Z,184.60
2023-04-18T22:58:14.594Z,202.10
2023-04-18T23:00:44.120Z,434.87
2023-04-18T23:03:12.850Z,276.97
2023-04-18T23:05:41.437Z,405.10
2023-04-18T23:08:09.666Z,410.53
2023-04-18T23:10:37.793Z,320.93
2023-04-18T23:13:05.899Z,243.90
2023-04-18T23:15:34.116Z,266.37
2023-04-18T23:18:04.367Z,244.67
2023-04-18T23:20:32.477Z,322.30
2023-04-18T23:23:00.649Z,223.00
2023-04-18T23:25:29.155Z,160.10
2023-04-18T23:27:57.273Z,147.23
2023-04-18T23:30:26.576Z,165.83
2023-04-18T23:32:55.088Z,95.17
2023-04-18T23:35:24.769Z,104.07
2023-04-18T23:37:52.882Z,79.33
2023-04-18T23:40:21.485Z,81.83
2023-04-18T23:42:49.957Z,51.60
2023-04-18T23:45:18.223Z,63.23
2023-04-18T23:47:46.372Z,47.03
2023-04-18T23:50:14.561Z,38.30
2023-04-18T23:52:44.007Z,34.10
2023-04-18T23:55:12.169Z,28.53
2023-04-18T23:57:40.735Z,30.57
